createdAt,value
2023-03-06T00:01:02.356Z,100.58
2023-03-06T00:02:10.512Z,104
2023-03-06T00:03:19.777Z,102.53
2023-03-06T00:04:28.866Z,101.56
2023-03-06T00:05:38.029Z,100.83
2023-03-06T00:06:47.203Z,103.27
2023-03-06T00:07:56.381Z,99.12
2023-03-06T00:09:05.562Z,100.58
2023-03-06T00:10:13.754Z,102.53
2023-03-06T00:11:21.932Z,100.34
2023-03-06T00:12:31.096Z,101.8
2023-03-06T00:13:39.303Z,100.09
2023-03-06T00:14:47.491Z,99.6
2023-03-06T00:15:56.669Z,101.8
2023-03-06T00:17:05.837Z,103.02
2023-03-06T00:18:15.031Z,102.29
2023-03-06T00:19:23.210Z,103.27
2023-03-06T00:20:31.435Z,103.27
2023-03-06T00:21:40.592Z,100.34
2023-03-06T00:22:49.766Z,100.34
2023-03-06T00:23:58.911Z,98.63
2023-03-06T00:25:08.165Z,99.85
2023-03-06T00:26:17.254Z,99.12
2023-03-06T00:27:26.428Z,100.58
2023-03-06T00:28:35.665Z,98.63
2023-03-06T00:29:44.773Z,98.87
2023-03-06T00:30:53.957Z,100.09
2023-03-06T00:32:03.124Z,100.83
2023-03-06T00:33:12.293Z,103.27
2023-03-06T00:34:21.464Z,106.68
2023-03-06T00:35:29.653Z,100.83
2023-03-06T00:36:38.840Z,100.34
2023-03-06T00:37:48.050Z,101.8
2023-03-06T00:38:57.173Z,101.07
2023-03-06T00:40:06.343Z,101.31
2023-03-06T00:41:15.519Z,103.02
2023-03-06T00:42:24.684Z,101.31
2023-03-06T00:43:32.889Z,100.58
2023-03-06T00:44:41.116Z,102.53
2023-03-06T00:45:49.307Z,101.31
2023-03-06T00:46:57.464Z,103.51
2023-03-06T00:48:06.622Z,100.83
2023-03-06T00:49:15.853Z,102.78
2023-03-06T00:50:24.975Z,100.83
2023-03-06T00:51:34.150Z,102.05
2023-03-06T00:52:43.358Z,99.85
2023-03-06T00:53:52.505Z,101.31
2023-03-06T00:55:01.673Z,100.83
2023-03-06T00:56:10.841Z,100.34
2023-03-06T00:57:20.007Z,100.58
2023-03-06T00:58:28.193Z,102.78
2023-03-06T00:59:37.372Z,101.8
2023-03-06T01:00:46.558Z,100.34
2023-03-06T01:01:55.714Z,102.78
2023-03-06T01:03:05.020Z,101.07
2023-03-06T01:04:14.097Z,101.31
2023-03-06T01:05:23.231Z,101.07
2023-03-06T01:06:32.403Z,103.02
2023-03-06T01:07:41.645Z,102.78
2023-03-06T01:08:50.788Z,101.8
2023-03-06T01:09:58.971Z,101.56
2023-03-06T01:11:07.144Z,99.12
2023-03-06T01:12:16.309Z,103.02
2023-03-06T01:13:25.539Z,101.31
2023-03-06T01:14:34.752Z,100.58
2023-03-06T01:15:43.881Z,99.36
2023-03-06T01:16:52.030Z,99.85
2023-03-06T01:18:00.285Z,100.58
2023-03-06T01:20:18.573Z,101.31
2023-03-06T01:21:27.740Z,101.8
2023-03-06T01:22:36.922Z,99.12
2023-03-06T01:23:46.128Z,99.6
2023-03-06T01:24:55.290Z,100.09
2023-03-06T01:26:04.422Z,98.63
2023-03-06T01:27:13.599Z,100.58
2023-03-06T01:28:22.771Z,99.85
2023-03-06T01:29:31.929Z,103.27
2023-03-06T01:30:41.109Z,101.31
2023-03-06T01:31:50.290Z,98.38
2023-03-06T01:32:58.480Z,99.85
2023-03-06T01:34:07.668Z,101.56
2023-03-06T01:35:16.894Z,99.6
2023-03-06T01:36:25.993Z,100.09
2023-03-06T01:37:35.170Z,99.36
2023-03-06T01:38:44.339Z,99.12
2023-03-06T01:39:53.508Z,97.9
2023-03-06T01:41:02.691Z,98.38
2023-03-06T01:42:10.912Z,97.16
2023-03-06T01:43:19.075Z,99.12
2023-03-06T01:44:28.239Z,96.19
2023-03-06T01:45:37.412Z,95.21
2023-03-06T01:46:46.687Z,93.75
2023-03-06T01:47:54.786Z,94.23
2023-03-06T01:49:03.007Z,93.75
2023-03-06T01:50:12.152Z,93.75
2023-03-06T01:51:21.332Z,91.79
2023-03-06T01:52:30.488Z,93.5
2023-03-06T01:53:39.657Z,92.04
2023-03-06T01:54:48.836Z,92.52
2023-03-06T01:55:58.014Z,91.3
2023-03-06T01:57:07.209Z,90.08
2023-03-06T01:58:16.353Z,91.3
2023-03-06T01:59:25.546Z,92.52
2023-03-06T02:00:34.704Z,91.06
2023-03-06T02:01:43.960Z,90.33
2023-03-06T02:02:53.041Z,92.04
2023-03-06T02:04:01.233Z,91.79
2023-03-06T02:05:10.429Z,92.52
2023-03-06T02:06:19.665Z,88.62
2023-03-06T02:07:28.826Z,90.82
2023-03-06T02:08:37.992Z,90.08
2023-03-06T02:09:47.158Z,87.4
2023-03-06T02:10:56.450Z,87.4
2023-03-06T02:12:04.525Z,87.4
2023-03-06T02:13:12.720Z,87.15
2023-03-06T02:14:20.960Z,85.69
2023-03-06T02:15:29.128Z,86.66
2023-03-06T02:16:38.273Z,87.15
2023-03-06T02:17:47.453Z,86.18
2023-03-06T02:18:56.626Z,85.2
2023-03-06T02:20:05.805Z,83.98
2023-03-06T02:21:14.960Z,86.18
2023-03-06T02:22:24.142Z,85.44
2023-03-06T02:23:33.354Z,85.93
2023-03-06T02:24:42.487Z,86.42
2023-03-06T02:25:51.675Z,85.44
2023-03-06T02:27:00.835Z,84.71
2023-03-06T02:28:10.017Z,84.47
2023-03-06T02:29:19.189Z,86.18
2023-03-06T02:30:27.380Z,87.15
2023-03-06T02:31:36.552Z,89.84
2023-03-06T02:32:45.733Z,88.13
2023-03-06T02:33:54.889Z,88.86
2023-03-06T02:35:04.062Z,93.01
2023-03-06T02:36:13.240Z,92.04
2023-03-06T02:37:22.435Z,94.97
2023-03-06T02:38:30.608Z,97.41
2023-03-06T02:39:38.794Z,95.94
2023-03-06T02:40:47.975Z,99.36
2023-03-06T02:41:57.145Z,97.9
2023-03-06T02:43:06.306Z,97.9
2023-03-06T02:44:14.553Z,100.58
2023-03-06T02:45:22.705Z,102.05
2023-03-06T02:46:31.870Z,99.12
2023-03-06T02:47:41.071Z,100.09
2023-03-06T02:48:50.233Z,101.07
2023-03-06T02:49:59.393Z,100.09
2023-03-06T02:51:08.569Z,100.34
2023-03-06T02:52:17.736Z,101.56
2023-03-06T02:53:26.901Z,101.8
2023-03-06T02:54:36.098Z,100.34
2023-03-06T02:55:45.312Z,100.58
2023-03-06T02:56:54.420Z,102.05
2023-03-06T02:58:03.590Z,101.07
2023-03-06T02:59:12.779Z,102.53
2023-03-06T03:00:20.969Z,100.34
2023-03-06T03:01:30.149Z,101.8
2023-03-06T03:02:39.305Z,99.85
2023-03-06T03:03:48.475Z,101.31
2023-03-06T03:04:57.658Z,100.34
2023-03-06T03:06:06.960Z,100.83
2023-03-06T03:07:16.045Z,99.85
2023-03-06T03:08:25.168Z,98.87
2023-03-06T03:09:34.338Z,99.36
2023-03-06T03:10:43.513Z,99.12
2023-03-06T03:11:52.691Z,99.12
2023-03-06T03:13:01.861Z,98.63
2023-03-06T03:14:11.032Z,97.16
2023-03-06T03:15:19.223Z,96.92
2023-03-06T03:16:28.388Z,96.19
2023-03-06T03:17:37.562Z,97.65
2023-03-06T03:18:46.751Z,100.83
2023-03-06T03:19:55.912Z,97.9
2023-03-06T03:21:04.160Z,97.41
2023-03-06T03:22:12.321Z,96.19
2023-03-06T03:23:20.520Z,96.92
2023-03-06T03:24:28.685Z,96.67
2023-03-06T03:25:37.869Z,96.67
2023-03-06T03:26:47.049Z,96.67
2023-03-06T03:27:56.287Z,97.16
2023-03-06T03:29:05.404Z,96.19
2023-03-06T03:30:14.575Z,95.94
2023-03-06T03:31:23.723Z,98.38
2023-03-06T03:32:32.906Z,93.99
2023-03-06T03:33:42.094Z,95.45
2023-03-06T03:34:51.235Z,96.43
2023-03-06T03:36:00.414Z,92.77
2023-03-06T03:37:09.633Z,94.23
2023-03-06T03:38:18.772Z,91.55
2023-03-06T03:39:26.976Z,92.52
2023-03-06T03:40:36.139Z,92.28
2023-03-06T03:41:45.298Z,92.28
2023-03-06T03:42:54.485Z,92.28
2023-03-06T03:44:03.666Z,91.3
2023-03-06T03:45:12.882Z,89.11
2023-03-06T03:46:22.004Z,90.82
2023-03-06T03:47:30.206Z,89.11
2023-03-06T03:48:38.428Z,90.82
2023-03-06T03:49:47.596Z,91.06
2023-03-06T03:50:56.730Z,89.35
2023-03-06T03:52:04.915Z,94.23
2023-03-06T03:53:13.099Z,91.06
2023-03-06T03:54:22.286Z,89.84
2023-03-06T03:55:31.485Z,93.99
2023-03-06T03:56:40.725Z,94.72
2023-03-06T03:57:49.807Z,91.55
2023-03-06T03:58:58.960Z,90.33
2023-03-06T04:00:08.135Z,87.64
2023-03-06T04:01:17.313Z,90.08
2023-03-06T04:02:26.505Z,89.35
2023-03-06T04:03:35.748Z,86.66
2023-03-06T04:04:44.844Z,87.15
2023-03-06T04:05:54.007Z,87.64
2023-03-06T04:07:03.186Z,87.4
2023-03-06T04:08:11.362Z,86.91
2023-03-06T04:09:20.622Z,87.4
2023-03-06T04:10:29.708Z,86.91
2023-03-06T04:11:38.929Z,86.91
2023-03-06T04:12:48.057Z,86.18
2023-03-06T04:13:57.260Z,85.2
2023-03-06T04:15:06.398Z,85.44
2023-03-06T04:16:14.597Z,85.44
2023-03-06T04:17:22.782Z,85.44
2023-03-06T04:18:30.997Z,84.47
2023-03-06T04:19:39.172Z,84.96
2023-03-06T04:20:48.347Z,85.44
2023-03-06T04:21:57.508Z,84.47
2023-03-06T04:23:06.689Z,85.44
2023-03-06T04:24:15.882Z,85.2
2023-03-06T04:25:25.055Z,85.69
2023-03-06T04:26:34.207Z,86.18
2023-03-06T04:27:43.398Z,87.15
2023-03-06T04:28:52.649Z,88.86
2023-03-06T04:30:01.744Z,92.28
2023-03-06T04:31:10.912Z,91.3
2023-03-06T04:32:20.078Z,91.3
2023-03-06T04:33:29.243Z,92.28
2023-03-06T04:34:37.447Z,92.52
2023-03-06T04:35:46.673Z,94.97
2023-03-06T04:36:55.784Z,95.7
2023-03-06T04:38:04.975Z,97.16
2023-03-06T04:39:14.135Z,98.14
2023-03-06T04:40:23.373Z,100.34
2023-03-06T04:41:32.534Z,98.63
2023-03-06T04:42:40.692Z,99.12
2023-03-06T04:43:48.959Z,98.38
2023-03-06T04:44:58.043Z,100.58
2023-03-06T04:46:07.211Z,99.6
2023-03-06T04:47:16.390Z,100.34
2023-03-06T04:48:25.545Z,102.05
2023-03-06T04:49:33.763Z,98.63
2023-03-06T04:50:41.950Z,100.09
2023-03-06T04:51:51.213Z,105.46
2023-03-06T04:53:00.290Z,103.27
2023-03-06T04:55:18.649Z,101.07
2023-03-06T04:56:27.902Z,102.53
2023-03-06T04:57:36.992Z,102.78
2023-03-06T04:58:46.168Z,100.34
2023-03-06T04:59:55.330Z,102.05
2023-03-06T05:01:04.507Z,101.07
2023-03-06T05:02:13.697Z,102.29
2023-03-06T05:03:22.864Z,101.8
2023-03-06T05:04:32.043Z,101.31
2023-03-06T05:05:40.215Z,101.8
2023-03-06T05:06:49.388Z,101.31
2023-03-06T05:07:58.582Z,101.8
2023-03-06T05:10:16.905Z,101.31
2023-03-06T05:11:25.096Z,101.07
2023-03-06T05:12:33.274Z,98.14
2023-03-06T05:13:42.459Z,97.9
2023-03-06T05:14:51.637Z,97.65
2023-03-06T05:16:00.941Z,98.14
2023-03-06T05:17:09.981Z,99.36
2023-03-06T05:18:19.187Z,97.41
2023-03-06T05:19:28.321Z,97.9
2023-03-06T05:20:37.520Z,100.34
2023-03-06T05:21:46.677Z,94.97
2023-03-06T05:22:55.844Z,94.97
2023-03-06T05:24:04.036Z,93.5
2023-03-06T05:25:12.222Z,93.26
2023-03-06T05:26:21.391Z,105.71
2023-03-06T05:27:30.575Z,93.5
2023-03-06T05:28:39.748Z,90.33
2023-03-06T05:29:48.940Z,92.77
2023-03-06T05:30:58.114Z,93.5
2023-03-06T05:32:07.267Z,89.84
2023-03-06T05:33:16.431Z,91.3
2023-03-06T05:34:25.612Z,89.11
2023-03-06T05:35:34.778Z,89.84
2023-03-06T05:36:43.968Z,88.13
2023-03-06T05:37:53.145Z,90.33
2023-03-06T05:39:02.367Z,88.13
2023-03-06T05:40:10.506Z,86.91
2023-03-06T05:41:19.721Z,89.35
2023-03-06T05:42:28.837Z,86.66
2023-03-06T05:43:38.013Z,86.91
2023-03-06T05:44:47.232Z,86.91
2023-03-06T05:45:56.364Z,88.13
2023-03-06T05:47:05.536Z,86.91
2023-03-06T05:48:15.007Z,88.86
2023-03-06T05:49:22.927Z,89.59
2023-03-06T05:50:31.086Z,86.91
2023-03-06T05:51:40.262Z,88.13
2023-03-06T05:52:49.436Z,88.86
2023-03-06T05:53:58.610Z,87.64
2023-03-06T05:55:06.805Z,103.27
2023-03-06T05:56:15.002Z,91.3
2023-03-06T05:57:24.170Z,87.15
2023-03-06T05:58:33.344Z,86.66
2023-03-06T05:59:42.507Z,89.11
2023-03-06T06:00:51.677Z,88.37
2023-03-06T06:02:00.844Z,88.37
2023-03-06T06:03:10.031Z,91.55
2023-03-06T06:04:19.204Z,91.06
2023-03-06T06:05:28.380Z,90.82
2023-03-06T06:06:37.572Z,93.01
2023-03-06T06:07:46.843Z,93.01
2023-03-06T06:08:55.898Z,94.97
2023-03-06T06:10:05.074Z,96.19
2023-03-06T06:11:13.254Z,99.12
2023-03-06T06:12:22.430Z,96.67
2023-03-06T06:13:31.600Z,100.58
2023-03-06T06:14:40.770Z,97.41
2023-03-06T06:15:49.937Z,98.63
2023-03-06T06:16:59.122Z,99.12
2023-03-06T06:18:08.303Z,101.07
2023-03-06T06:19:16.491Z,98.63
2023-03-06T06:20:24.682Z,100.34
2023-03-06T06:21:32.880Z,99.85
2023-03-06T06:22:41.065Z,98.14
2023-03-06T06:23:50.264Z,99.12
2023-03-06T06:24:59.414Z,98.87
2023-03-06T06:26:08.568Z,100.09
2023-03-06T06:27:17.754Z,99.36
2023-03-06T06:28:26.926Z,102.29
2023-03-06T06:29:36.116Z,98.87
2023-03-06T06:30:45.292Z,99.85
2023-03-06T06:31:54.481Z,101.07
2023-03-06T06:33:03.610Z,101.31
2023-03-06T06:34:12.846Z,99.85
2023-03-06T06:35:22.066Z,102.05
2023-03-06T06:36:31.120Z,104.49
2023-03-06T06:37:39.328Z,100.83
2023-03-06T06:38:48.560Z,102.78
2023-03-06T06:39:57.678Z,102.78
2023-03-06T06:41:06.903Z,103.27
2023-03-06T06:42:16.105Z,104.24
2023-03-06T06:43:25.285Z,104.24
2023-03-06T06:44:34.472Z,109.13
2023-03-06T06:45:42.751Z,103.02
2023-03-06T06:46:50.786Z,103.51
2023-03-06T06:47:59.056Z,102.29
2023-03-06T06:49:07.309Z,104.73
2023-03-06T06:50:16.473Z,101.31
2023-03-06T06:51:25.466Z,101.8
2023-03-06T06:52:34.816Z,104
2023-03-06T06:53:43.819Z,102.29
2023-03-06T06:54:53.215Z,102.05
2023-03-06T06:56:02.307Z,103.75
2023-03-06T06:57:11.452Z,104.73
2023-03-06T06:58:20.592Z,104.24
2023-03-06T06:59:29.828Z,103.51
2023-03-06T07:00:39.028Z,105.71
2023-03-06T07:01:48.193Z,106.93
2023-03-06T07:02:57.394Z,111.32
2023-03-06T07:04:05.423Z,104
2023-03-06T07:05:14.728Z,104.98
2023-03-06T07:06:23.736Z,108.88
2023-03-06T07:07:33.074Z,107.42
2023-03-06T07:08:42.106Z,105.95
2023-03-06T07:09:51.364Z,108.15
2023-03-06T07:11:00.582Z,109.13
2023-03-06T07:12:08.789Z,121.58
2023-03-06T07:14:26.076Z,107.91
2023-03-06T07:15:34.406Z,108.64
2023-03-06T07:16:42.502Z,109.37
2023-03-06T07:17:51.800Z,108.88
2023-03-06T07:19:00.932Z,108.88
2023-03-06T07:20:10.046Z,107.91
2023-03-06T07:21:19.200Z,108.88
2023-03-06T07:22:28.353Z,107.91
2023-03-06T07:23:37.517Z,109.37
2023-03-06T07:24:46.698Z,110.59
2023-03-06T07:25:55.748Z,108.64
2023-03-06T07:27:04.924Z,109.37
2023-03-06T07:28:14.346Z,109.13
2023-03-06T07:29:23.436Z,111.08
2023-03-06T07:30:32.648Z,108.15
2023-03-06T07:31:40.777Z,109.61
2023-03-06T07:32:49.908Z,119.87
2023-03-06T07:33:59.150Z,108.39
2023-03-06T07:35:08.184Z,108.39
2023-03-06T07:36:17.487Z,112.06
2023-03-06T07:37:26.614Z,114.25
2023-03-06T07:38:35.890Z,114.01
2023-03-06T07:39:44.899Z,113.52
2023-03-06T07:40:54.003Z,113.76
2023-03-06T07:42:03.317Z,112.54
2023-03-06T07:43:12.498Z,114.5
2023-03-06T07:44:21.714Z,112.06
2023-03-06T07:46:40.022Z,110.1
2023-03-06T07:47:48.207Z,112.06
2023-03-06T07:48:57.393Z,113.28
2023-03-06T07:50:06.524Z,109.13
2023-03-06T07:51:15.746Z,106.93
2023-03-06T07:52:24.923Z,108.39
2023-03-06T07:53:34.000Z,106.93
2023-03-06T07:54:43.308Z,108.88
2023-03-06T07:55:52.498Z,108.15
2023-03-06T07:57:01.593Z,108.64
2023-03-06T07:58:10.804Z,128.66
2023-03-06T08:00:29.138Z,107.91
2023-03-06T08:01:38.341Z,107.66
2023-03-06T08:02:46.498Z,107.17
2023-03-06T08:03:55.690Z,109.37
2023-03-06T08:05:04.788Z,108.15
2023-03-06T08:06:14.030Z,110.1
2023-03-06T08:07:23.184Z,107.91
2023-03-06T08:08:32.365Z,109.86
2023-03-06T08:09:41.534Z,108.15
2023-03-06T08:10:50.649Z,110.35
2023-03-06T08:13:08.923Z,110.1
2023-03-06T08:14:18.214Z,107.91
2023-03-06T08:15:27.367Z,108.39
2023-03-06T08:16:36.561Z,110.83
2023-03-06T08:17:44.677Z,116.69
2023-03-06T08:18:53.930Z,110.35
2023-03-06T08:20:03.046Z,110.35
2023-03-06T08:21:12.342Z,112.06
2023-03-06T08:22:21.465Z,109.13
2023-03-06T08:23:30.612Z,108.15
2023-03-06T08:24:39.791Z,109.61
2023-03-06T08:25:48.811Z,108.88
2023-03-06T08:26:58.126Z,109.13
2023-03-06T08:28:07.197Z,109.13
2023-03-06T08:29:16.505Z,109.86
2023-03-06T08:30:25.507Z,108.88
2023-03-06T08:31:34.836Z,112.06
2023-03-06T08:32:43.974Z,109.37
2023-03-06T08:33:52.041Z,113.28
2023-03-06T08:35:01.285Z,109.61
2023-03-06T08:36:10.584Z,108.88
2023-03-06T08:37:19.724Z,109.86
2023-03-06T08:38:28.914Z,110.59
2023-03-06T08:39:38.192Z,109.13
2023-03-06T08:40:46.259Z,114.25
2023-03-06T08:41:55.277Z,108.88
2023-03-06T08:43:04.622Z,108.88
2023-03-06T08:44:13.822Z,108.64
2023-03-06T08:45:22.945Z,121.33
2023-03-06T08:46:32.116Z,109.86
2023-03-06T08:47:41.207Z,110.83
2023-03-06T08:48:50.474Z,111.32
2023-03-06T08:49:59.547Z,110.35
2023-03-06T08:51:08.660Z,111.32
2023-03-06T08:52:17.933Z,112.06
2023-03-06T08:53:27.024Z,113.28
2023-03-06T08:54:36.173Z,112.54
2023-03-06T08:55:44.362Z,116.21
2023-03-06T08:58:02.858Z,118.16
2023-03-06T08:59:12.017Z,120.11
2023-03-06T09:00:21.142Z,117.43
2023-03-06T09:01:30.390Z,120.6
2023-03-06T09:02:39.408Z,121.33
2023-03-06T09:03:48.577Z,120.11
2023-03-06T09:04:57.834Z,119.38
2023-03-06T09:07:16.085Z,116.69
2023-03-06T09:09:34.542Z,117.67
2023-03-06T09:10:42.657Z,130.61
2023-03-06T09:11:50.974Z,119.62
2023-03-06T09:14:09.161Z,119.38
2023-03-06T09:15:18.346Z,117.43
2023-03-06T09:16:27.506Z,119.62
2023-03-06T09:17:36.679Z,119.87
2023-03-06T09:18:45.874Z,117.43
2023-03-06T09:19:55.030Z,119.87
2023-03-06T09:21:04.225Z,118.16
2023-03-06T09:22:13.378Z,125
2023-03-06T09:23:22.548Z,113.03
2023-03-06T09:24:31.794Z,114.01
2023-03-06T09:25:40.969Z,114.25
2023-03-06T09:26:49.097Z,113.52
2023-03-06T09:27:58.327Z,113.28
2023-03-06T09:29:07.426Z,113.76
2023-03-06T09:30:16.598Z,112.79
2023-03-06T09:31:25.799Z,113.03
2023-03-06T09:32:34.958Z,111.08
2023-03-06T09:33:44.142Z,109.86
2023-03-06T09:34:53.442Z,112.06
2023-03-06T09:36:01.672Z,111.32
2023-03-06T09:37:09.849Z,108.88
2023-03-06T09:38:19.006Z,110.83
2023-03-06T09:39:27.258Z,107.91
2023-03-06T09:40:35.381Z,109.86
2023-03-06T09:41:44.545Z,106.44
2023-03-06T09:42:53.601Z,104.73
2023-03-06T09:44:02.847Z,103.75
2023-03-06T09:45:12.052Z,104.49
2023-03-06T09:46:21.129Z,104.24
2023-03-06T09:47:30.405Z,102.53
2023-03-06T09:48:39.582Z,103.27
2023-03-06T09:49:48.758Z,104.73
2023-03-06T09:50:57.994Z,104.98
2023-03-06T09:52:06.965Z,105.71
2023-03-06T09:53:16.273Z,107.17
2023-03-06T09:54:25.325Z,107.91
2023-03-06T09:55:33.494Z,106.44
2023-03-06T09:56:42.731Z,107.91
2023-03-06T09:59:01.106Z,108.39
2023-03-06T10:00:10.206Z,110.35
2023-03-06T10:01:19.353Z,109.86
2023-03-06T10:02:28.569Z,110.1
2023-03-06T10:03:37.797Z,112.3
2023-03-06T10:04:45.931Z,116.45
2023-03-06T10:05:54.179Z,115.72
2023-03-06T10:07:02.430Z,115.96
2023-03-06T10:08:10.638Z,117.43
2023-03-06T10:09:19.759Z,116.69
2023-03-06T10:10:28.924Z,116.45
2023-03-06T10:11:37.976Z,118.4
2023-03-06T10:12:47.258Z,121.33
2023-03-06T10:13:56.437Z,115.47
2023-03-06T10:15:05.600Z,116.45
2023-03-06T10:16:14.902Z,118.89
2023-03-06T10:17:23.958Z,122.55
2023-03-06T10:18:33.021Z,116.21
2023-03-06T10:19:42.349Z,122.55
2023-03-06T10:20:51.549Z,113.76
2023-03-06T10:22:00.668Z,112.79
2023-03-06T10:23:08.810Z,112.54
2023-03-06T10:24:18.075Z,111.32
2023-03-06T10:25:27.148Z,111.32
2023-03-06T10:27:45.543Z,110.59
2023-03-06T10:28:54.680Z,110.35
2023-03-06T10:30:03.880Z,109.61
2023-03-06T10:31:13.057Z,109.37
2023-03-06T10:32:21.218Z,109.13
2023-03-06T10:33:29.470Z,108.64
2023-03-06T10:34:38.648Z,110.59
2023-03-06T10:35:46.768Z,108.39
2023-03-06T10:36:54.957Z,109.37
2023-03-06T10:38:04.112Z,108.15
2023-03-06T10:39:13.350Z,106.68
2023-03-06T10:40:22.458Z,109.13
2023-03-06T10:41:31.691Z,106.93
2023-03-06T10:42:40.844Z,108.39
2023-03-06T10:43:49.961Z,105.71
2023-03-06T10:44:59.207Z,108.88
2023-03-06T10:46:08.288Z,109.13
2023-03-06T10:47:17.487Z,105.71
2023-03-06T10:48:26.713Z,107.91
2023-03-06T10:49:35.786Z,110.59
2023-03-06T10:50:44.959Z,107.17
2023-03-06T10:51:53.238Z,109.61
2023-03-06T10:53:02.338Z,108.64
2023-03-06T10:54:11.571Z,108.88
2023-03-06T10:55:20.697Z,110.59
2023-03-06T10:56:29.891Z,112.3
2023-03-06T10:57:39.113Z,112.54
2023-03-06T10:58:48.208Z,116.45
2023-03-06T10:59:57.419Z,114.5
2023-03-06T11:01:05.579Z,114.5
2023-03-06T11:02:13.768Z,111.32
2023-03-06T11:03:22.906Z,109.86
2023-03-06T11:04:32.237Z,110.59
2023-03-06T11:05:40.283Z,111.08
2023-03-06T11:06:48.460Z,115.96
2023-03-06T11:07:57.634Z,111.32
2023-03-06T11:09:06.810Z,109.86
2023-03-06T11:10:15.978Z,112.06
2023-03-06T11:11:25.229Z,111.32
2023-03-06T11:12:34.405Z,111.81
2023-03-06T11:13:43.598Z,112.06
2023-03-06T11:14:52.677Z,112.54
2023-03-06T11:16:01.929Z,114.74
2023-03-06T11:17:11.046Z,111.57
2023-03-06T11:18:20.331Z,112.54
2023-03-06T11:19:29.443Z,110.35
2023-03-06T11:20:38.616Z,111.08
2023-03-06T11:21:46.858Z,110.59
2023-03-06T11:22:55.953Z,108.88
2023-03-06T11:24:05.213Z,109.13
2023-03-06T11:25:14.237Z,112.54
2023-03-06T11:26:23.409Z,109.37
2023-03-06T11:27:32.598Z,114.5
2023-03-06T11:28:41.755Z,121.33
2023-03-06T11:29:50.070Z,116.21
2023-03-06T11:30:58.143Z,114.99
2023-03-06T11:32:06.349Z,118.16
2023-03-06T11:33:14.519Z,117.18
2023-03-06T11:34:23.705Z,118.16
2023-03-06T11:35:32.955Z,114.25
2023-03-06T11:36:42.137Z,113.03
2023-03-06T11:37:51.337Z,113.52
2023-03-06T11:39:00.457Z,113.52
2023-03-06T11:40:09.559Z,117.91
2023-03-06T11:41:18.738Z,113.28
2023-03-06T11:42:27.924Z,114.99
2023-03-06T11:43:37.086Z,115.96
2023-03-06T11:44:46.375Z,116.21
2023-03-06T11:45:55.415Z,114.5
2023-03-06T11:47:04.650Z,123.77
2023-03-06T11:48:12.835Z,118.89
2023-03-06T11:49:21.977Z,119.87
2023-03-06T11:50:31.414Z,111.81
2023-03-06T11:51:40.461Z,111.81
2023-03-06T11:52:49.501Z,111.57
2023-03-06T11:53:58.785Z,110.1
2023-03-06T11:55:07.883Z,111.57
2023-03-06T11:56:16.193Z,111.81
2023-03-06T11:57:24.234Z,111.32
2023-03-06T11:58:32.407Z,114.01
2023-03-06T11:59:40.646Z,112.06
2023-03-06T12:00:49.802Z,124.75
2023-03-06T12:01:59.033Z,114.99
2023-03-06T12:03:08.154Z,114.99
2023-03-06T12:05:26.612Z,111.57
2023-03-06T12:06:35.645Z,113.28
2023-03-06T12:07:44.814Z,111.81
2023-03-06T12:08:54.015Z,113.76
2023-03-06T12:10:03.171Z,112.79
2023-03-06T12:11:12.341Z,117.91
2023-03-06T12:12:21.510Z,114.01
2023-03-06T12:13:30.695Z,112.54
2023-03-06T12:14:38.873Z,112.06
2023-03-06T12:15:48.039Z,113.52
2023-03-06T12:16:57.222Z,111.57
2023-03-06T12:18:06.401Z,109.13
2023-03-06T12:19:15.597Z,110.83
2023-03-06T12:20:24.731Z,111.57
2023-03-06T12:21:33.911Z,110.35
2023-03-06T12:22:43.094Z,111.08
2023-03-06T12:23:51.294Z,113.28
2023-03-06T12:24:59.616Z,112.06
2023-03-06T12:26:08.637Z,111.81
2023-03-06T12:27:17.829Z,111.32
2023-03-06T12:28:26.986Z,110.59
2023-03-06T12:29:36.149Z,109.37
2023-03-06T12:30:45.407Z,109.37
2023-03-06T12:31:54.549Z,110.59
2023-03-06T12:33:03.690Z,108.64
2023-03-06T12:34:12.853Z,109.86
2023-03-06T12:35:22.026Z,108.15
2023-03-06T12:36:31.245Z,106.68
2023-03-06T12:37:39.427Z,109.37
2023-03-06T12:38:47.641Z,109.61
2023-03-06T12:39:56.952Z,109.86
2023-03-06T12:41:05.931Z,109.13
2023-03-06T12:42:15.090Z,111.57
2023-03-06T12:43:24.312Z,110.1
2023-03-06T12:44:33.451Z,111.57
2023-03-06T12:45:42.706Z,110.59
2023-03-06T12:46:51.790Z,108.39
2023-03-06T12:48:01.021Z,109.37
2023-03-06T12:49:10.134Z,109.13
2023-03-06T12:50:19.555Z,108.88
2023-03-06T12:51:28.491Z,109.86
2023-03-06T12:52:37.800Z,107.42
2023-03-06T12:53:45.983Z,106.68
2023-03-06T12:54:55.038Z,109.13
2023-03-06T12:56:04.248Z,108.64
2023-03-06T12:57:13.371Z,109.61
2023-03-06T12:58:22.544Z,111.57
2023-03-06T12:59:31.703Z,108.64
2023-03-06T13:00:40.993Z,109.61
2023-03-06T13:01:49.194Z,109.13
2023-03-06T13:02:57.409Z,107.91
2023-03-06T13:04:06.560Z,110.1
2023-03-06T13:05:14.806Z,109.61
2023-03-06T13:06:22.810Z,104.98
2023-03-06T13:07:32.028Z,108.15
2023-03-06T13:08:41.171Z,110.83
2023-03-06T13:09:50.370Z,111.08
2023-03-06T13:10:59.624Z,106.44
2023-03-06T13:12:08.699Z,106.68
2023-03-06T13:13:17.852Z,105.71
2023-03-06T13:14:27.141Z,108.88
2023-03-06T13:15:36.255Z,104.49
2023-03-06T13:16:45.534Z,108.88
2023-03-06T13:17:54.654Z,106.2
2023-03-06T13:19:03.864Z,106.44
2023-03-06T13:20:12.902Z,109.37
2023-03-06T13:21:21.183Z,104.24
2023-03-06T13:22:30.312Z,107.91
2023-03-06T13:23:39.447Z,105.71
2023-03-06T13:24:48.710Z,100.58
2023-03-06T13:25:57.769Z,113.28
2023-03-06T13:27:07.088Z,107.42
2023-03-06T13:28:16.158Z,108.39
2023-03-06T13:29:25.285Z,106.44
2023-03-06T13:30:34.464Z,103.51
2023-03-06T13:31:43.634Z,102.78
2023-03-06T13:32:52.805Z,110.59
2023-03-06T13:34:00.996Z,110.59
2023-03-06T13:35:09.210Z,113.28
2023-03-06T13:36:18.511Z,114.99
2023-03-06T13:37:27.692Z,110.59
2023-03-06T13:38:36.743Z,110.35
2023-03-06T13:39:45.919Z,107.66
2023-03-06T13:40:55.223Z,106.68
2023-03-06T13:42:04.406Z,106.44
2023-03-06T13:43:13.575Z,105.71
2023-03-06T13:44:22.635Z,110.59
2023-03-06T13:45:31.912Z,106.93
2023-03-06T13:46:41.041Z,106.93
2023-03-06T13:47:50.079Z,107.17
2023-03-06T13:48:59.249Z,107.91
2023-03-06T13:50:07.573Z,109.86
2023-03-06T13:51:16.793Z,109.86
2023-03-06T13:52:25.938Z,109.61
2023-03-06T13:53:35.056Z,111.81
2023-03-06T13:54:44.185Z,110.1
2023-03-06T13:55:53.304Z,108.88
2023-03-06T13:57:02.629Z,109.86
2023-03-06T13:58:10.674Z,108.15
2023-03-06T13:59:18.897Z,106.68
2023-03-06T14:00:27.110Z,108.88
2023-03-06T14:01:35.227Z,108.15
2023-03-06T14:02:43.515Z,106.44
2023-03-06T14:03:51.791Z,108.15
2023-03-06T14:05:00.894Z,107.91
2023-03-06T14:06:10.124Z,108.15
2023-03-06T14:07:19.294Z,107.91
2023-03-06T14:08:28.448Z,108.88
2023-03-06T14:09:37.620Z,108.15
2023-03-06T14:10:46.774Z,109.86
2023-03-06T14:11:56.064Z,111.57
2023-03-06T14:13:05.001Z,114.25
2023-03-06T14:14:14.277Z,112.54
2023-03-06T14:15:23.629Z,113.03
2023-03-06T14:16:32.593Z,111.57
2023-03-06T14:17:41.846Z,112.3
2023-03-06T14:18:49.963Z,109.61
2023-03-06T14:19:59.129Z,110.35
2023-03-06T14:21:08.227Z,107.91
2023-03-06T14:22:17.508Z,106.68
2023-03-06T14:23:26.658Z,108.88
2023-03-06T14:24:35.805Z,106.68
2023-03-06T14:25:44.916Z,108.64
2023-03-06T14:26:53.247Z,105.71
2023-03-06T14:28:01.415Z,109.13
2023-03-06T14:29:10.532Z,107.91
2023-03-06T14:30:18.753Z,108.88
2023-03-06T14:31:26.904Z,106.68
2023-03-06T14:32:36.187Z,109.13
2023-03-06T14:33:45.350Z,105.95
2023-03-06T14:34:54.515Z,108.39
2023-03-06T14:36:03.668Z,107.17
2023-03-06T14:37:12.882Z,106.2
2023-03-06T14:38:21.938Z,105.95
2023-03-06T14:39:31.211Z,103.51
2023-03-06T14:40:40.393Z,105.95
2023-03-06T14:41:49.593Z,106.2
2023-03-06T14:42:58.743Z,105.46
2023-03-06T14:44:07.908Z,106.2
2023-03-06T14:45:17.061Z,105.95
2023-03-06T14:46:25.225Z,104.98
2023-03-06T14:47:34.281Z,105.22